Time;durP1;ratioP1;P1;durP2;ratioP2;P2;SDS_P1;SDS_P2;PMS_P1;PMS_P2;Temp;Humidity;BMP_temperature;BMP_pressure;BME280_temperature;BME280_humidity;BME280_pressure;Samples;Min_cycle;Max_cycle;Signal;HPM_P1;HPM_P2
2022/05/29 00:01:03;;;;;;;7.95;5.03;;;;;;;5.48;66.46;96931.27;1619067;88;25877;-75
2022/05/29 00:03:30;;;;;;;8.90;5.10;;;;;;;5.44;66.36;96934.31;1618971;88;25905;-73
2022/05/29 00:05:56;;;;;;;8.75;5.05;;;;;;;5.41;66.38;96932.05;1625553;87;27658;-74
2022/05/29 00:08:30;;;;;;;8.33;4.70;;;;;;;5.38;66.47;96927.06;1673709;85;25807;-73
2022/05/29 00:10:58;;;;;;;6.78;4.70;;;;;;;5.33;66.49;96929.47;1719659;81;25750;-75
2022/05/29 00:13:25;;;;;;;9.00;4.33;;;;;;;5.32;66.64;96927.81;1770781;81;25736;-73
2022/05/29 00:15:52;;;;;;;7.47;4.72;;;;;;;5.28;66.61;96925.22;1770896;81;25746;-75
2022/05/29 00:18:19;;;;;;;10.95;5.15;;;;;;;5.24;66.67;96925.77;1770749;81;26781;-74
2022/05/29 00:20:50;;;;;;;10.30;5.10;;;;;;;5.20;66.68;96927.98;1770628;81;25802;-74
2022/05/29 00:23:17;;;;;;;7.15;4.30;;;;;;;5.20;66.78;96923.98;1736065;82;25830;-74
2022/05/29 00:25:47;;;;;;;8.23;5.08;;;;;;;5.20;66.76;96926.66;1739307;82;25756;-74
2022/05/29 00:28:14;;;;;;;7.22;4.67;;;;;;;5.20;66.89;96926.66;1739510;82;25833;-75
2022/05/29 00:30:41;;;;;;;9.15;5.10;;;;;;;5.17;66.94;96923.04;1737015;82;27444;-75
2022/05/29 00:33:09;;;;;;;10.93;5.95;;;;;;;5.08;66.99;96917.46;1765359;80;25708;-74
2022/05/29 00:35:39;;;;;;;10.93;4.70;;;;;;;4.95;67.08;96921.35;1777550;80;25816;-76
2022/05/29 00:38:09;;;;;;;11.18;4.78;;;;;;;4.95;67.28;96919.47;1777319;80;25878;-75
2022/05/29 00:41:05;;;;;;;7.37;4.90;;;;;;;4.98;67.25;96920.95;1703893;83;25819;-73
2022/05/29 00:43:31;;;;;;;8.15;5.37;;;;;;;4.96;67.36;96921.64;1724479;83;27623;-75
2022/05/29 00:46:02;;;;;;;10.03;5.17;;;;;;;4.96;67.40;96920.30;1695826;84;25762;-74
2022/05/29 00:48:29;;;;;;;8.50;4.95;;;;;;;4.94;67.39;96925.04;1695842;84;25746;-74
2022/05/29 00:51:03;;;;;;;7.97;4.92;;;;;;;4.92;67.35;96927.06;1695828;84;25855;-73
2022/05/29 00:53:32;;;;;;;9.25;4.80;;;;;;;4.77;67.17;96932.94;1696035;84;25754;-74
2022/05/29 00:56:07;;;;;;;9.95;5.20;;;;;;;4.73;67.24;96927.13;1695846;84;27458;-74
2022/05/29 00:58:34;;;;;;;8.38;4.70;;;;;;;4.70;67.34;96927.02;1621941;87;25860;-75
2022/05/29 01:01:02;;;;;;;9.78;4.45;;;;;;;4.68;67.39;96929.04;1631666;87;25891;-75
2022/05/29 01:03:29;;;;;;;7.62;4.30;;;;;;;4.63;67.39;96923.91;1617042;88;25874;-75
2022/05/29 01:05:55;;;;;;;7.45;4.30;;;;;;;4.63;67.47;96931.94;1616866;88;25872;-75
2022/05/29 01:08:29;;;;;;;7.03;4.35;;;;;;;4.60;67.40;96928.28;1616761;88;28263;-73
2022/05/29 01:11:23;;;;;;;8.45;5.05;;;;;;;4.55;67.38;96926.19;1594092;89;26011;-73
2022/05/29 01:14:09;;;;;;;8.70;4.92;;;;;;;4.52;67.54;96925.22;1594084;89;25793;-74
2022/05/29 01:17:15;;;;;;;7.35;4.47;;;;;;;4.47;67.59;96920.92;1591539;89;25767;-74
2022/05/29 01:20:20;;;;;;;6.92;4.22;;;;;;;4.44;67.55;96923.98;1595434;89;25740;-74
2022/05/29 01:23:04;;;;;;;6.83;4.37;;;;;;;4.39;67.63;96926.37;1599181;89;28235;-74
2022/05/29 01:25:55;;;;;;;7.25;4.50;;;;;;;4.35;67.69;96931.75;1600514;88;25872;-74
2022/05/29 01:28:39;;;;;;;9.63;4.30;;;;;;;4.31;67.79;96929.14;1595800;89;25828;-73
2022/05/29 01:31:11;;;;;;;8.73;4.60;;;;;;;4.27;67.78;96929.17;1598978;89;25832;-74
2022/05/29 01:34:18;;;;;;;10.63;4.25;;;;;;;4.27;67.88;96927.84;1549964;92;25876;-74
2022/05/29 01:37:13;;;;;;;11.45;4.08;;;;;;;4.26;67.94;96928.34;1558573;89;28033;-73
2022/05/29 01:39:54;;;;;;;12.37;4.60;;;;;;;4.04;67.92;96928.41;1603296;88;26024;-73
2022/05/29 01:42:29;;;;;;;4.67;3.70;;;;;;;4.02;68.21;96925.09;1598518;89;25792;-75
2022/05/29 01:45:18;;;;;;;5.55;3.42;;;;;;;4.02;68.23;96931.27;1597111;89;26408;-74
2022/05/29 01:47:56;;;;;;;8.10;3.67;;;;;;;4.03;68.24;96932.09;1601703;89;25356;-73
2022/05/29 01:50:30;;;;;;;8.55;3.80;;;;;;;4.02;68.31;96931.77;1527925;93;27443;-73
2022/05/29 01:53:17;;;;;;;6.70;3.37;;;;;;;3.98;68.32;96926.78;1480281;96;25913;-73
2022/05/29 01:55:51;;;;;;;7.12;3.90;;;;;;;3.96;68.28;96930.16;1449100;98;26024;-74
2022/05/29 01:58:22;;;;;;;8.65;3.45;;;;;;;3.94;68.31;96928.17;1458575;98;25963;-74
2022/05/29 02:00:51;;;;;;;5.97;3.52;;;;;;;3.88;68.28;96926.22;1411094;101;25886;-74
2022/05/29 02:03:22;;;;;;;8.33;3.58;;;;;;;3.84;68.36;96934.28;1397879;102;27422;-75
2022/05/29 02:05:56;;;;;;;5.67;3.45;;;;;;;3.79;68.43;96939.32;1397990;102;25904;-73
2022/05/29 02:08:27;;;;;;;6.12;3.35;;;;;;;3.79;68.54;96940.66;1397800;102;26107;-73
2022/05/29 02:11:08;;;;;;;11.20;3.83;;;;;;;3.76;68.49;96937.50;1419619;98;26489;-73
2022/05/29 02:13:45;;;;;;;7.45;3.72;;;;;;;3.72;68.51;96935.72;1461606;96;25520;-75
2022/05/29 02:16:19;;;;;;;5.08;3.70;;;;;;;3.61;68.57;96944.16;1459528;98;28177;-73
2022/05/29 02:19:06;;;;;;;6.05;4.08;;;;;;;3.52;68.65;96946.04;1460760;98;25849;-73
2022/05/29 02:21:44;;;;;;;7.10;3.62;;;;;;;3.43;68.83;96947.62;1442028;98;25931;-74
2022/05/29 02:24:15;;;;;;;11.95;3.98;;;;;;;3.43;68.96;96939.61;1439741;99;25997;-74
2022/05/29 02:26:59;;;;;;;8.50;3.77;;;;;;;3.41;68.99;96952.30;1439791;99;25925;-74
2022/05/29 02:29:27;;;;;;;5.92;3.67;;;;;;;3.35;68.95;96945.02;1420159;99;27618;-73
2022/05/29 02:32:05;;;;;;;5.25;3.30;;;;;;;3.27;69.12;96945.88;1438276;99;25956;-73
2022/05/29 02:35:04;;;;;;;9.63;3.87;;;;;;;3.24;69.26;96954.27;1438600;99;25849;-73
2022/05/29 02:37:44;;;;;;;10.38;3.87;;;;;;;3.17;69.26;96955.45;1438508;99;25965;-73
2022/05/29 02:40:28;;;;;;;6.25;3.37;;;;;;;3.14;69.40;96955.80;1438372;99;26007;-74
2022/05/29 02:43:18;;;;;;;8.05;3.27;;;;;;;3.14;69.57;96959.80;1438400;99;26885;-74
2022/05/29 02:46:21;;;;;;;5.17;3.00;;;;;;;3.18;69.53;96965.12;1438415;99;25931;-74
2022/05/29 02:48:56;;;;;;;4.65;3.22;;;;;;;3.22;69.49;96969.61;1550261;92;25936;-74
2022/05/29 02:51:33;;;;;;;7.58;3.33;;;;;;;3.14;69.54;96965.13;1501960;95;26506;-74
2022/05/29 02:54:00;;;;;;;5.83;3.70;;;;;;;3.14;69.68;96960.33;1575228;89;25749;-74
2022/05/29 02:56:26;;;;;;;6.72;3.83;;;;;;;3.15;69.76;96964.12;1575020;90;27456;-74
2022/05/29 02:58:58;;;;;;;6.85;3.52;;;;;;;3.08;69.74;96967.19;1625614;88;25334;-74
2022/05/29 03:01:42;;;;;;;6.83;3.52;;;;;;;3.04;69.84;96963.20;1629011;88;25394;-73
2022/05/29 03:04:29;;;;;;;5.20;3.60;;;;;;;3.05;70.05;96969.36;1628789;88;25869;-75
2022/05/29 03:07:15;;;;;;;10.68;3.15;;;;;;;3.00;70.04;96969.91;1628954;88;26027;-73
2022/05/29 03:09:54;;;;;;;8.15;3.52;;;;;;;2.98;70.01;96964.41;1626165;88;27368;-74
2022/05/29 03:12:37;;;;;;;8.45;3.62;;;;;;;2.95;70.11;96972.25;1594992;89;25799;-74
2022/05/29 03:15:46;;;;;;;9.25;4.55;;;;;;;2.86;70.18;96971.97;1594893;89;25858;-75
2022/05/29 03:18:27;;;;;;;8.03;3.75;;;;;;;2.91;70.49;96969.59;1595162;89;25830;-74
2022/05/29 03:21:16;;;;;;;5.65;3.33;;;;;;;2.99;70.49;96970.91;1594857;89;25781;-75
2022/05/29 03:24:10;;;;;;;8.13;3.12;;;;;;;3.05;70.44;96971.52;1594901;89;27471;-74
2022/05/29 03:27:06;;;;;;;5.40;3.42;;;;;;;3.08;70.41;96974.35;1609878;88;25825;-73
2022/05/29 03:29:41;;;;;;;6.37;3.70;;;;;;;3.06;70.43;96975.02;1626657;88;25885;-73
2022/05/29 03:32:08;;;;;;;7.75;3.45;;;;;;;3.01;70.47;96973.41;1595312;89;26371;-74
2022/05/29 03:34:35;;;;;;;7.40;3.72;;;;;;;3.02;70.71;96977.20;1610722;89;25809;-74
2022/05/29 03:37:01;;;;;;;5.85;3.58;;;;;;;3.07;70.79;96972.19;1610794;89;27402;-73
2022/05/29 03:39:27;;;;;;;8.50;3.45;;;;;;;3.14;70.89;96975.00;1610708;89;26467;-74
2022/05/29 03:41:55;;;;;;;5.67;3.47;;;;;;;3.16;70.86;96971.12;1641570;86;25822;-75
2022/05/29 03:44:24;;;;;;;6.67;3.65;;;;;;;3.19;70.83;96967.28;1665573;86;26319;-73
2022/05/29 03:46:51;;;;;;;6.00;3.37;;;;;;;3.22;70.77;96965.11;1665510;86;25697;-74
2022/05/29 03:49:22;;;;;;;13.43;3.75;;;;;;;3.25;70.78;96961.27;1667862;85;28208;-76
2022/05/29 03:51:49;;;;;;;7.65;3.80;;;;;;;3.28;70.85;96962.72;1673063;85;25927;-73
2022/05/29 03:54:16;;;;;;;4.87;3.50;;;;;;;3.30;71.01;96971.38;1672956;85;25932;-74
2022/05/29 03:56:43;;;;;;;5.80;3.50;;;;;;;3.36;71.10;96970.70;1672987;85;26318;-73
2022/05/29 03:59:10;;;;;;;8.15;4.20;;;;;;;3.39;71.07;96968.48;1672936;85;25915;-74
2022/05/29 04:01:37;;;;;;;5.58;3.47;;;;;;;3.42;70.94;96972.64;1673024;85;28170;-73
2022/05/29 04:04:04;;;;;;;5.72;3.10;;;;;;;3.45;70.98;96970.95;1672963;85;25344;-75
2022/05/29 04:06:34;;;;;;;7.08;3.25;;;;;;;3.48;71.06;96962.10;1701795;82;25829;-74
2022/05/29 04:14:37;;;;;;;5.08;3.45;;;;;;;3.71;71.43;96964.76;1727936;83;27443;-74
2022/05/29 04:17:04;;;;;;;8.63;5.17;;;;;;;3.82;71.49;96964.33;1682406;85;25917;-74
2022/05/29 04:19:31;;;;;;;7.05;4.47;;;;;;;3.87;71.42;96961.94;1682302;85;25935;-74
2022/05/29 04:21:57;;;;;;;7.85;4.05;;;;;;;3.93;71.40;96958.56;1682476;85;26552;-76
2022/05/29 04:24:24;;;;;;;7.78;3.87;;;;;;;3.99;71.41;96960.48;1682599;85;25793;-74
2022/05/29 04:26:51;;;;;;;8.55;4.10;;;;;;;4.05;71.45;96959.45;1682650;85;26834;-73
2022/05/29 04:29:20;;;;;;;7.90;3.22;;;;;;;4.11;71.48;96957.38;1682361;85;25811;-75
2022/05/29 04:34:32;;;;;;;4.45;3.37;;;;;;;4.25;71.53;96961.92;1686244;83;26554;-73
2022/05/29 04:36:58;;;;;;;5.55;3.30;;;;;;;4.34;71.47;96956.84;1727386;83;25643;-74
2022/05/29 04:39:26;;;;;;;6.83;3.27;;;;;;;4.43;71.54;96955.73;1727400;83;27382;-75
2022/05/29 04:41:52;;;;;;;7.12;3.30;;;;;;;4.49;71.63;96953.64;1727316;83;25789;-74
2022/05/29 04:44:19;;;;;;;4.37;3.00;;;;;;;4.54;71.78;96957.11;1727469;83;25754;-74
2022/05/29 04:46:45;;;;;;;4.90;3.00;;;;;;;4.61;71.63;96964.20;1727590;83;25758;-75
2022/05/29 04:49:12;;;;;;;4.22;2.90;;;;;;;4.66;71.67;96957.80;1727513;83;25790;-74
2022/05/29 04:51:38;;;;;;;7.12;3.45;;;;;;;4.73;71.81;96949.85;1727434;83;27400;-73
2022/05/29 04:54:05;;;;;;;8.68;3.50;;;;;;;4.81;71.87;96949.77;1727310;83;25658;-73
2022/05/29 04:56:32;;;;;;;6.05;3.90;;;;;;;4.90;71.93;96953.16;1727515;83;25746;-73
2022/05/29 04:58:58;;;;;;;9.05;4.33;;;;;;;5.01;71.91;96954.02;1727572;83;26526;-73
2022/05/29 05:01:25;;;;;;;7.33;3.90;;;;;;;5.10;71.97;96947.53;1727591;83;25849;-74
2022/05/29 05:03:51;;;;;;;5.50;3.60;;;;;;;5.20;72.01;96938.69;1727511;83;28244;-74
2022/05/29 05:06:18;;;;;;;5.50;3.58;;;;;;;5.27;71.95;96934.77;1727325;83;25300;-73
2022/05/29 05:08:44;;;;;;;11.97;4.05;;;;;;;5.39;71.98;96938.09;1727180;83;25981;-75
2022/05/29 05:11:11;;;;;;;9.08;3.75;;;;;;;5.50;71.93;96938.09;1727342;83;25847;-74
2022/05/29 05:13:37;;;;;;;6.42;3.95;;;;;;;5.61;71.88;96932.23;1748002;80;25799;-73
2022/05/29 05:16:05;;;;;;;6.30;4.42;;;;;;;5.71;71.95;96923.36;1784918;80;27322;-73
2022/05/29 05:18:32;;;;;;;6.35;4.60;;;;;;;5.83;72.02;96922.84;1784805;80;25687;-73
2022/05/29 05:20:59;;;;;;;7.90;4.12;;;;;;;5.94;71.82;96928.52;1784739;80;25845;-74
2022/05/29 05:23:27;;;;;;;5.53;3.50;;;;;;;6.05;71.56;96925.31;1784969;79;26255;-74
2022/05/29 05:25:54;;;;;;;6.47;3.25;;;;;;;6.16;71.40;96919.13;1766102;81;25651;-73
2022/05/29 05:28:20;;;;;;;6.12;3.50;;;;;;;6.28;71.34;96921.58;1737936;81;27375;-74
2022/05/29 05:30:48;;;;;;;8.63;4.15;;;;;;;6.40;71.37;96915.98;1765481;80;25283;-75
2022/05/29 05:33:15;;;;;;;6.20;3.90;;;;;;;6.52;71.37;96913.58;1765618;81;25727;-74
2022/05/29 05:35:42;;;;;;;7.22;4.40;;;;;;;6.63;71.42;96912.51;1765871;81;25937;-74
2022/05/29 05:38:08;;;;;;;6.58;3.83;;;;;;;6.76;71.44;96914.43;1765974;81;25660;-72
2022/05/29 05:40:35;;;;;;;8.48;4.30;;;;;;;6.88;71.31;96918.72;1765791;81;27360;-74
2022/05/29 05:43:02;;;;;;;5.92;3.92;;;;;;;7.00;71.00;96907.20;1765903;81;25887;-75
2022/05/29 05:45:28;;;;;;;7.37;4.08;;;;;;;7.12;70.75;96908.80;1765768;81;26111;-76
2022/05/29 05:47:55;;;;;;;6.55;3.40;;;;;;;7.26;70.43;96913.66;1765893;81;25845;-73
2022/05/29 05:50:21;;;;;;;6.20;3.00;;;;;;;7.39;70.37;96905.64;1766066;81;25695;-75
2022/05/29 05:52:48;;;;;;;4.72;3.52;;;;;;;7.51;70.23;96904.84;1766001;81;28044;-74
2022/05/29 05:55:14;;;;;;;5.22;3.45;;;;;;;7.63;70.11;96902.38;1765772;81;26292;-75
2022/05/29 05:57:43;;;;;;;8.83;3.10;;;;;;;7.78;70.05;96907.05;1784415;80;25657;-74
2022/05/29 06:00:14;;;;;;;6.30;3.20;;;;;;;7.90;69.70;96905.40;1784817;80;25693;-74
2022/05/29 06:02:42;;;;;;;8.13;3.15;;;;;;;8.02;69.36;96901.57;1784982;80;25694;-76
2022/05/29 06:05:11;;;;;;;6.83;3.37;;;;;;;8.15;69.46;96900.22;1785137;80;27393;-74
2022/05/29 06:07:37;;;;;;;7.35;3.10;;;;;;;8.31;69.35;96898.97;1784783;80;25890;-74
2022/05/29 06:10:05;;;;;;;7.33;3.12;;;;;;;8.45;68.87;96894.43;1784863;80;25681;-74
2022/05/29 06:12:32;;;;;;;5.53;3.27;;;;;;;8.57;68.63;96896.78;1765801;81;26317;-74
2022/05/29 06:14:59;;;;;;;3.10;2.22;;;;;;;8.70;68.56;96900.75;1765982;81;25798;-74
2022/05/29 06:17:27;;;;;;;5.80;2.83;;;;;;;8.82;68.17;96890.16;1765422;81;27413;-75
2022/05/29 06:19:54;;;;;;;6.53;3.27;;;;;;;8.92;67.71;96887.34;1765841;81;25715;-74
2022/05/29 06:22:21;;;;;;;5.00;3.12;;;;;;;9.03;67.37;96888.54;1777449;78;26392;-74
2022/05/29 06:24:47;;;;;;;5.17;2.67;;;;;;;9.19;67.28;96881.81;1797474;79;25755;-74
2022/05/29 06:27:14;;;;;;;12.25;2.77;;;;;;;9.32;66.77;96882.57;1797577;79;25639;-74
2022/05/29 06:29:41;;;;;;;3.85;2.37;;;;;;;9.46;66.77;96879.80;1817219;78;27441;-76
2022/05/29 06:32:13;;;;;;;8.50;2.92;;;;;;;9.57;66.54;96873.19;1795960;78;25726;-75
2022/05/29 06:34:39;;;;;;;5.97;2.47;;;;;;;9.69;66.37;96879.53;1792014;79;25711;-75
2022/05/29 06:37:07;;;;;;;4.53;2.17;;;;;;;9.88;66.68;96876.92;1792448;79;25847;-75
2022/05/29 06:39:38;;;;;;;5.78;2.45;;;;;;;10.02;66.21;96873.88;1792102;80;25650;-74
2022/05/29 06:42:06;;;;;;;4.40;2.02;;;;;;;10.15;65.95;96871.58;1792130;79;28092;-75
2022/05/29 06:44:37;;;;;;;6.47;2.62;;;;;;;10.28;65.76;96883.63;1791925;79;25853;-76
2022/05/29 06:47:07;;;;;;;4.75;1.92;;;;;;;10.40;65.62;96876.45;1792258;79;25714;-75
2022/05/29 06:49:34;;;;;;;4.72;1.98;;;;;;;10.56;65.42;96875.58;1792200;79;25687;-75
2022/05/29 06:52:00;;;;;;;7.33;2.20;;;;;;;10.69;65.26;96870.04;1792236;79;25703;-75
2022/05/29 06:54:28;;;;;;;4.47;1.70;;;;;;;10.83;64.67;96866.97;1792285;80;27352;-76
2022/05/29 06:56:54;;;;;;;5.42;1.65;;;;;;;10.95;64.59;96862.16;1792057;79;25666;-75
2022/05/29 06:59:21;;;;;;;5.80;2.00;;;;;;;11.13;64.30;96858.06;1792324;79;25711;-76
2022/05/29 07:07:18;;;;;;;5.55;2.62;;;;;;;11.44;63.09;96857.03;1787628;80;27586;-75
2022/05/29 07:09:45;;;;;;;4.85;1.95;;;;;;;11.54;62.54;96855.94;1786548;80;25714;-77
2022/05/29 07:12:18;;;;;;;8.20;2.33;;;;;;;11.65;62.82;96852.97;1755444;81;25738;-75
2022/05/29 07:15:01;;;;;;;4.15;1.95;;;;;;;11.75;62.20;96850.02;1725623;82;25638;-75
2022/05/29 07:17:28;;;;;;;6.17;2.22;;;;;;;11.88;61.95;96856.58;1681170;85;25842;-76
2022/05/29 07:19:54;;;;;;;5.08;1.87;;;;;;;12.01;61.93;96844.72;1680871;84;27451;-75
2022/05/29 07:22:21;;;;;;;3.50;1.90;;;;;;;12.12;61.24;96839.02;1680916;85;25898;-77
2022/05/29 07:24:48;;;;;;;6.92;2.40;;;;;;;12.20;60.99;96841.36;1680975;85;25852;-76
2022/05/29 07:27:15;;;;;;;5.80;2.10;;;;;;;12.33;60.91;96838.42;1680958;85;25906;-76
2022/05/29 07:29:42;;;;;;;6.30;2.15;;;;;;;12.46;60.67;96840.89;1681116;85;25356;-75
2022/05/29 07:32:11;;;;;;;4.25;1.95;;;;;;;12.57;60.48;96840.05;1682163;85;28296;-76
2022/05/29 07:34:37;;;;;;;5.12;2.02;;;;;;;12.71;60.34;96839.80;1682734;85;25339;-75
2022/05/29 07:37:10;;;;;;;4.50;2.08;;;;;;;12.81;59.85;96844.06;1682922;84;25754;-76
2022/05/29 07:39:42;;;;;;;5.45;2.72;;;;;;;12.91;59.59;96832.11;1682892;85;25777;-78
2022/05/29 07:44:55;;;;;;;5.60;2.12;;;;;;;13.25;59.56;96834.44;1682701;85;27497;-75
2022/05/29 07:47:27;;;;;;;4.97;2.00;;;;;;;13.52;59.23;96829.25;1682947;85;25327;-77
2022/05/29 07:49:52;;;;;;;11.15;2.75;;;;;;;13.82;58.58;96826.23;1667501;84;26648;-75
2022/05/29 07:52:19;;;;;;;4.12;2.47;;;;;;;14.17;58.00;96829.52;1653243;86;25863;-75
2022/05/29 07:54:45;;;;;;;10.43;3.00;;;;;;;14.63;57.56;96833.75;1653384;86;25852;-75
2022/05/29 07:57:12;;;;;;;4.78;2.25;;;;;;;15.12;57.24;96831.11;1674748;85;27464;-74
2022/05/29 07:59:39;;;;;;;4.10;2.10;;;;;;;15.68;56.37;96829.05;1653230;86;25898;-76
2022/05/29 08:02:06;;;;;;;6.40;2.40;;;;;;;16.25;55.56;96832.51;1674382;85;25939;-77
2022/05/29 08:04:32;;;;;;;6.40;2.20;;;;;;;16.72;54.77;96827.95;1661866;85;25903;-78
2022/05/29 08:06:59;;;;;;;5.08;2.22;;;;;;;17.14;54.34;96822.43;1674763;85;25743;-76
2022/05/29 08:09:26;;;;;;;4.80;2.10;;;;;;;17.64;53.62;96832.67;1653378;86;28074;-78
2022/05/29 08:11:52;;;;;;;3.60;1.72;;;;;;;18.08;52.89;96821.27;1713448;82;25733;-76
2022/05/29 08:14:19;;;;;;;5.60;2.20;;;;;;;18.49;52.26;96821.22;1752765;81;25746;-76
2022/05/29 08:16:45;;;;;;;4.17;1.90;;;;;;;18.87;50.93;96817.88;1791431;79;26466;-77
2022/05/29 08:19:12;;;;;;;2.65;1.70;;;;;;;19.26;49.85;96796.67;1792602;79;25918;-77
2022/05/29 08:21:40;;;;;;;4.12;2.10;;;;;;;19.26;49.85;96796.67;1788216;79;27396;-77
2022/05/29 08:32:21;;;;;;;4.10;2.00;;;;;;;20.40;46.82;96802.22;1776082;79;25810;-80
2022/05/29 08:34:47;;;;;;;6.28;2.50;;;;;;;20.78;45.82;96803.73;1776093;80;27480;-78
2022/05/29 08:37:14;;;;;;;4.15;1.75;;;;;;;20.99;45.73;96803.78;1775804;80;25617;-77
2022/05/29 08:39:40;;;;;;;4.75;1.90;;;;;;;21.51;45.13;96787.75;1776147;80;25635;-77
2022/05/29 08:42:08;;;;;;;1.52;1.40;;;;;;;21.97;44.09;96784.89;1776150;80;25723;-77
2022/05/29 08:44:43;;;;;;;3.30;2.00;;;;;;;22.41;43.83;96788.02;1775907;80;25733;-77
2022/05/29 08:47:10;;;;;;;2.52;1.72;;;;;;;22.87;43.61;96791.31;1772819;80;27363;-78
2022/05/29 08:49:46;;;;;;;3.77;1.70;;;;;;;23.43;42.69;96773.63;1775935;80;25399;-79
2022/05/29 08:52:53;;;;;;;4.95;1.75;;;;;;;23.87;41.32;96774.33;1751714;80;25822;-78
2022/05/29 08:55:30;;;;;;;5.03;1.77;;;;;;;24.16;41.25;96769.18;1777402;80;26612;-78
2022/05/29 08:58:02;;;;;;;2.62;1.82;;;;;;;24.66;40.70;96767.08;1774651;80;25717;-77
2022/05/29 09:00:43;;;;;;;4.75;1.52;;;;;;;25.16;39.84;96777.87;1777256;80;27504;-80
2022/05/29 09:03:27;;;;;;;3.08;1.90;;;;;;;25.42;38.71;96780.14;1712735;83;25821;-78
2022/05/29 09:06:04;;;;;;;4.70;2.12;;;;;;;25.71;38.13;96778.77;1717480;83;25751;-77
2022/05/29 09:08:42;;;;;;;4.75;1.60;;;;;;;25.66;37.50;96772.00;1717498;83;25939;-77
2022/05/29 09:11:35;;;;;;;3.20;1.62;;;;;;;25.99;36.15;96764.85;1700176;84;25783;-75
2022/05/29 09:14:13;;;;;;;2.30;1.72;;;;;;;25.67;36.31;96766.72;1700649;84;28360;-76
2022/05/29 09:16:47;;;;;;;3.00;1.72;;;;;;;25.84;36.03;96765.36;1670930;85;25791;-77
2022/05/29 09:19:51;;;;;;;2.17;1.50;;;;;;;25.89;35.07;96765.18;1654359;86;25870;-75
2022/05/29 09:22:38;;;;;;;4.45;1.77;;;;;;;25.68;35.87;96756.73;1654145;86;25831;-75
2022/05/29 09:25:39;;;;;;;2.12;1.60;;;;;;;25.71;34.83;96756.66;1654523;86;25944;-77
2022/05/29 09:28:18;;;;;;;2.40;1.35;;;;;;;25.17;33.56;96765.70;1654640;86;27381;-75
2022/05/29 09:30:47;;;;;;;4.00;1.55;;;;;;;24.68;33.90;96753.79;1654460;85;25766;-77
2022/05/29 09:33:19;;;;;;;2.98;1.42;;;;;;;24.00;33.10;96748.09;1654297;86;25800;-75
2022/05/29 09:36:18;;;;;;;2.25;1.37;;;;;;;23.55;34.17;96753.28;1654989;86;25865;-78
2022/05/29 09:38:57;;;;;;;2.65;1.40;;;;;;;23.52;34.08;96744.28;1654897;86;25958;-78
2022/05/29 09:41:35;;;;;;;3.92;1.67;;;;;;;23.21;34.21;96740.78;1654719;86;27212;-78
2022/05/29 09:44:10;;;;;;;1.87;1.30;;;;;;;23.60;34.85;96731.14;1634886;87;26113;-79
2022/05/29 09:46:44;;;;;;;2.83;1.22;;;;;;;24.00;34.16;96730.73;1655761;86;25782;-79
2022/05/29 09:49:42;;;;;;;2.42;1.37;;;;;;;24.20;34.22;96725.26;1577517;88;25924;-79
2022/05/29 09:52:19;;;;;;;2.65;1.37;;;;;;;24.53;33.23;96727.98;1558186;92;25889;-76
2022/05/29 09:55:05;;;;;;;4.87;1.00;;;;;;;24.82;32.83;96723.89;1588761;89;27467;-77
2022/05/29 09:57:39;;;;;;;1.62;1.20;;;;;;;24.40;31.28;96720.61;1582373;89;25863;-80
2022/05/29 10:00:30;;;;;;;1.82;1.25;;;;;;;24.03;31.10;96713.55;1573678;89;25888;-79
2022/05/29 10:02:57;;;;;;;4.75;1.55;;;;;;;24.12;31.52;96707.55;1616893;88;25918;-78
2022/05/29 10:05:41;;;;;;;0.85;0.80;;;;;;;24.27;30.56;96702.23;1599505;88;26052;-80
2022/05/29 10:08:31;;;;;;;1.82;1.10;;;;;;;24.11;29.93;96700.40;1635860;87;28493;-77
2022/05/29 10:11:30;;;;;;;1.72;0.95;;;;;;;24.16;30.35;96699.44;1631585;87;25804;-77
2022/05/29 10:14:00;;;;;;;1.67;1.20;;;;;;;24.60;29.97;96693.87;1635022;87;25907;-78
2022/05/29 10:16:38;;;;;;;3.83;1.40;;;;;;;24.95;29.09;96695.39;1634809;87;26560;-76
2022/05/29 10:19:12;;;;;;;2.75;1.50;;;;;;;24.61;29.29;96699.64;1633749;87;25838;-79
2022/05/29 10:21:50;;;;;;;1.42;1.15;;;;;;;24.70;29.24;96688.06;1662899;84;27437;-79
2022/05/29 10:24:37;;;;;;;3.70;1.65;;;;;;;24.69;30.04;96693.33;1666485;85;25863;-77
2022/05/29 10:27:04;;;;;;;2.65;1.60;;;;;;;24.79;29.97;96692.22;1663038;85;25691;-78
2022/05/29 10:29:34;;;;;;;5.10;1.70;;;;;;;23.95;30.33;96683.42;1682124;84;25783;-76
2022/05/29 10:32:06;;;;;;;3.27;1.72;;;;;;;23.44;30.83;96677.49;1681607;84;25861;-77
2022/05/29 10:34:40;;;;;;;1.95;1.30;;;;;;;23.01;31.51;96680.67;1677672;84;27526;-77
2022/05/29 10:37:31;;;;;;;2.50;1.62;;;;;;;22.58;31.62;96671.34;1661779;84;25838;-79
2022/05/29 10:40:27;;;;;;;3.22;1.22;;;;;;;22.23;31.66;96662.41;1677834;83;26934;-77
2022/05/29 10:43:00;;;;;;;3.45;1.15;;;;;;;21.76;31.71;96680.80;1697641;83;26585;-77
2022/05/29 10:45:32;;;;;;;3.12;1.40;;;;;;;21.47;32.46;96681.57;1658423;81;25730;-77
2022/05/29 10:48:15;;;;;;;3.08;1.20;;;;;;;21.40;32.56;96685.23;1733770;81;27389;-76
2022/05/29 10:50:53;;;;;;;5.35;1.37;;;;;;;21.28;32.24;96682.94;1720690;82;26129;-76
2022/05/29 10:53:59;;;;;;;4.78;1.60;;;;;;;21.17;32.49;96683.62;1715052;82;26874;-78
2022/05/29 10:57:03;;;;;;;2.20;1.40;;;;;;;20.98;32.05;96681.43;1721283;82;25803;-75
2022/05/29 11:00:10;;;;;;;3.72;1.30;;;;;;;20.74;33.21;96688.88;1733037;81;25787;-79
2022/05/29 11:03:28;;;;;;;3.35;1.52;;;;;;;20.93;33.70;96681.48;1736832;81;27426;-77
2022/05/29 11:06:33;;;;;;;1.42;1.10;;;;;;;21.07;33.89;96689.25;1732708;81;25824;-75
2022/05/29 11:09:41;;;;;;;1.52;1.22;;;;;;;21.00;33.93;96683.88;1736937;81;25812;-75
2022/05/29 11:12:50;;;;;;;2.98;1.80;;;;;;;20.69;34.89;96691.12;1732763;81;25916;-77
2022/05/29 11:15:47;;;;;;;4.08;1.42;;;;;;;20.74;35.18;96683.39;1730408;81;25707;-76
2022/05/29 11:18:36;;;;;;;5.00;1.65;;;;;;;20.75;35.44;96693.26;1723790;81;28190;-75
2022/05/29 11:21:14;;;;;;;3.90;1.47;;;;;;;20.76;35.07;96693.52;1721053;82;25892;-79
2022/05/29 11:24:06;;;;;;;5.17;1.65;;;;;;;20.77;35.33;96692.41;1721039;82;25750;-75
2022/05/29 11:27:11;;;;;;;3.42;1.77;;;;;;;20.56;35.10;96692.37;1723080;82;25769;-76
2022/05/29 11:30:00;;;;;;;2.15;1.10;;;;;;;20.43;35.08;96683.75;1617073;87;25849;-77
2022/05/29 11:32:41;;;;;;;3.08;1.60;;;;;;;20.32;35.57;96693.16;1609606;87;28245;-77
2022/05/29 11:35:18;;;;;;;2.72;1.50;;;;;;;20.16;35.80;96691.70;1600607;88;25790;-77
2022/05/29 11:38:12;;;;;;;2.95;1.72;;;;;;;20.03;36.03;96695.13;1595322;88;25714;-76
2022/05/29 11:40:47;;;;;;;3.55;1.62;;;;;;;19.91;36.09;96691.95;1594512;88;25868;-77
2022/05/29 11:43:28;;;;;;;4.75;1.45;;;;;;;19.71;36.23;96689.64;1601868;87;25973;-77
2022/05/29 11:52:59;;;;;;;3.72;1.77;;;;;;;19.31;37.10;96683.92;1605432;87;25796;-75
2022/05/29 11:55:34;;;;;;;4.12;1.50;;;;;;;19.39;37.90;96687.95;1617388;87;26891;-75
2022/05/29 11:58:28;;;;;;;3.85;1.22;;;;;;;19.63;37.98;96677.95;1540395;92;25838;-75
2022/05/29 12:01:09;;;;;;;5.08;1.50;;;;;;;19.83;37.64;96672.02;1541144;92;27500;-77
2022/05/29 12:03:52;;;;;;;3.33;1.30;;;;;;;19.98;37.49;96673.25;1542575;92;25776;-79
2022/05/29 12:06:37;;;;;;;4.05;1.60;;;;;;;20.01;37.69;96672.67;1563410;87;25861;-78
2022/05/29 12:09:41;;;;;;;3.67;1.30;;;;;;;20.00;37.56;96662.27;1605923;88;26311;-76
2022/05/29 12:12:17;;;;;;;2.08;1.27;;;;;;;19.89;37.64;96659.92;1611278;88;25746;-78
2022/05/29 12:15:04;;;;;;;4.33;1.98;;;;;;;19.78;38.05;96656.47;1606694;88;27347;-77
2022/05/29 12:17:58;;;;;;;5.83;1.87;;;;;;;19.80;37.89;96646.59;1611188;88;25907;-76
2022/05/29 12:20:54;;;;;;;3.08;1.40;;;;;;;19.87;38.31;96632.00;1606773;88;25946;-76
2022/05/29 12:23:28;;;;;;;5.30;1.75;;;;;;;19.95;38.18;96623.14;1573314;91;26380;-77
2022/05/29 12:28:47;;;;;;;4.53;1.67;;;;;;;19.91;38.18;96622.92;1500442;95;27424;-76
2022/05/29 12:31:35;;;;;;;4.67;1.32;;;;;;;19.91;37.97;96625.67;1498100;95;25600;-77
2022/05/29 12:34:02;;;;;;;3.58;1.45;;;;;;;20.04;38.50;96620.06;1469610;97;26087;-77
2022/05/29 12:36:57;;;;;;;5.58;1.62;;;;;;;20.32;38.57;96623.27;1469306;97;26016;-77
2022/05/29 12:39:54;;;;;;;3.50;1.60;;;;;;;20.60;38.62;96631.75;1469580;97;25728;-78
2022/05/29 12:42:45;;;;;;;3.72;1.75;;;;;;;20.72;37.74;96612.94;1448122;97;27512;-78
2022/05/29 12:45:19;;;;;;;4.55;1.52;;;;;;;21.11;37.18;96629.94;1391746;103;25884;-78
2022/05/29 12:48:17;;;;;;;2.83;1.32;;;;;;;21.31;37.65;96632.13;1392017;103;25397;-79
2022/05/29 12:51:09;;;;;;;3.85;1.57;;;;;;;21.59;37.60;96636.62;1422366;99;25728;-78